sensor_id;sensor_type;location;lat;lon;timestamp;P1;durP1;ratioP1;P2;durP2;ratioP2
2748;SDS011;1382;52.142;11.618;2023-02-15T00:01:13;32.37;;;19.03;;
2748;SDS011;1382;52.142;11.618;2023-02-15T00:03:39;28.43;;;15.27;;
2748;SDS011;1382;52.142;11.618;2023-02-15T00:06:06;32.90;;;19.53;;
2748;SDS011;1382;52.142;11.618;2023-02-15T00:08:33;33.90;;;18.83;;
2748;SDS011;1382;52.142;11.618;2023-02-15T00:11:03;39.23;;;20.33;;
2748;SDS011;1382;52.142;11.618;2023-02-15T00:13:31;39.03;;;19.67;;
2748;SDS011;1382;52.142;11.618;2023-02-15T00:16:01;32.90;;;16.73;;
2748;SDS011;1382;52.142;11.618;2023-02-15T00:18:28;29.33;;;17.50;;
2748;SDS011;1382;52.142;11.618;2023-02-15T00:20:55;23.40;;;13.07;;
2748;SDS011;1382;52.142;11.618;2023-02-15T00:23:22;25.70;;;15.40;;
2748;SDS011;1382;52.142;11.618;2023-02-15T00:25:48;28.43;;;15.37;;
2748;SDS011;1382;52.142;11.618;2023-02-15T00:28:15;32.87;;;17.60;;
2748;SDS011;1382;52.142;11.618;2023-02-15T00:30:42;28.53;;;15.43;;
2748;SDS011;1382;52.142;11.618;2023-02-15T00:33:10;27.20;;;13.83;;
2748;SDS011;1382;52.142;11.618;2023-02-15T00:35:36;31.63;;;17.03;;
2748;SDS011;1382;52.142;11.618;2023-02-15T00:38:03;32.67;;;17.90;;
2748;SDS011;1382;52.142;11.618;2023-02-15T00:40:30;28.30;;;15.87;;
2748;SDS011;1382;52.142;11.618;2023-02-15T00:42:56;32.60;;;14.90;;
2748;SDS011;1382;52.142;11.618;2023-02-15T00:45:23;29.33;;;16.23;;
2748;SDS011;1382;52.142;11.618;2023-02-15T00:47:50;30.23;;;17.80;;
2748;SDS011;1382;52.142;11.618;2023-02-15T00:50:18;36.33;;;16.90;;
2748;SDS011;1382;52.142;11.618;2023-02-15T00:52:48;34.97;;;18.33;;
2748;SDS011;1382;52.142;11.618;2023-02-15T00:55:14;27.83;;;15.40;;
2748;SDS011;1382;52.142;11.618;2023-02-15T00:57:41;31.27;;;16.47;;
2748;SDS011;1382;52.142;11.618;2023-02-15T01:00:08;26.53;;;13.70;;
2748;SDS011;1382;52.142;11.618;2023-02-15T01:02:35;30.97;;;18.90;;
2748;SDS011;1382;52.142;11.618;2023-02-15T01:05:02;31.40;;;18.40;;
2748;SDS011;1382;52.142;11.618;2023-02-15T01:07:30;24.83;;;13.57;;
2748;SDS011;1382;52.142;11.618;2023-02-15T01:09:57;33.00;;;17.37;;
2748;SDS011;1382;52.142;11.618;2023-02-15T01:12:24;34.90;;;18.50;;
2748;SDS011;1382;52.142;11.618;2023-02-15T01:14:50;31.63;;;16.10;;
2748;SDS011;1382;52.142;11.618;2023-02-15T01:17:17;31.97;;;17.70;;
2748;SDS011;1382;52.142;11.618;2023-02-15T01:19:44;28.03;;;17.50;;
2748;SDS011;1382;52.142;11.618;2023-02-15T01:22:11;35.00;;;17.40;;
2748;SDS011;1382;52.142;11.618;2023-02-15T01:24:39;30.57;;;15.23;;
2748;SDS011;1382;52.142;11.618;2023-02-15T01:27:05;37.77;;;15.87;;
2748;SDS011;1382;52.142;11.618;2023-02-15T01:29:32;33.20;;;18.30;;
2748;SDS011;1382;52.142;11.618;2023-02-15T01:31:59;37.57;;;19.90;;
2748;SDS011;1382;52.142;11.618;2023-02-15T01:34:25;30.47;;;13.33;;
2748;SDS011;1382;52.142;11.618;2023-02-15T01:36:52;23.73;;;11.50;;
2748;SDS011;1382;52.142;11.618;2023-02-15T01:39:19;22.80;;;14.63;;
2748;SDS011;1382;52.142;11.618;2023-02-15T01:41:47;26.70;;;16.60;;
2748;SDS011;1382;52.142;11.618;2023-02-15T01:47:18;26.70;;;13.40;;
2748;SDS011;1382;52.142;11.618;2023-02-15T01:49:48;34.70;;;17.57;;
2748;SDS011;1382;52.142;11.618;2023-02-15T01:52:23;35.53;;;21.30;;
2748;SDS011;1382;52.142;11.618;2023-02-15T01:54:50;36.50;;;20.23;;
2748;SDS011;1382;52.142;11.618;2023-02-15T01:57:19;39.80;;;19.90;;
2748;SDS011;1382;52.142;11.618;2023-02-15T01:59:51;37.90;;;19.67;;
2748;SDS011;1382;52.142;11.618;2023-02-15T02:02:20;39.40;;;20.13;;
2748;SDS011;1382;52.142;11.618;2023-02-15T02:04:48;31.53;;;18.90;;
2748;SDS011;1382;52.142;11.618;2023-02-15T02:07:17;39.43;;;18.23;;
2748;SDS011;1382;52.142;11.618;2023-02-15T02:09:46;40.20;;;18.33;;
2748;SDS011;1382;52.142;11.618;2023-02-15T02:12:14;40.70;;;19.63;;
2748;SDS011;1382;52.142;11.618;2023-02-15T02:14:43;33.37;;;17.70;;
2748;SDS011;1382;52.142;11.618;2023-02-15T02:17:12;39.90;;;18.77;;
2748;SDS011;1382;52.142;11.618;2023-02-15T02:22:55;28.53;;;16.33;;
2748;SDS011;1382;52.142;11.618;2023-02-15T02:25:50;42.50;;;20.00;;
2748;SDS011;1382;52.142;11.618;2023-02-15T02:29:00;35.30;;;19.40;;
2748;SDS011;1382;52.142;11.618;2023-02-15T02:31:57;36.00;;;16.40;;
2748;SDS011;1382;52.142;11.618;2023-02-15T02:34:40;36.53;;;18.57;;
2748;SDS011;1382;52.142;11.618;2023-02-15T02:37:12;36.30;;;18.83;;
2748;SDS011;1382;52.142;11.618;2023-02-15T02:39:47;37.07;;;18.27;;
2748;SDS011;1382;52.142;11.618;2023-02-15T02:42:20;32.37;;;17.33;;
2748;SDS011;1382;52.142;11.618;2023-02-15T02:44:54;44.43;;;22.67;;
2748;SDS011;1382;52.142;11.618;2023-02-15T02:47:28;38.63;;;19.23;;
2748;SDS011;1382;52.142;11.618;2023-02-15T02:50:01;35.27;;;18.07;;
2748;SDS011;1382;52.142;11.618;2023-02-15T02:52:34;36.23;;;19.57;;
2748;SDS011;1382;52.142;11.618;2023-02-15T02:55:03;39.80;;;19.77;;
2748;SDS011;1382;52.142;11.618;2023-02-15T02:57:35;37.80;;;19.13;;
2748;SDS011;1382;52.142;11.618;2023-02-15T03:00:07;46.00;;;23.93;;
2748;SDS011;1382;52.142;11.618;2023-02-15T03:02:36;36.90;;;19.37;;
2748;SDS011;1382;52.142;11.618;2023-02-15T03:05:09;39.57;;;18.37;;
2748;SDS011;1382;52.142;11.618;2023-02-15T03:07:40;39.40;;;21.17;;
2748;SDS011;1382;52.142;11.618;2023-02-15T03:10:09;35.33;;;18.90;;
2748;SDS011;1382;52.142;11.618;2023-02-15T03:12:37;39.97;;;19.90;;
2748;SDS011;1382;52.142;11.618;2023-02-15T03:15:06;34.70;;;17.57;;
2748;SDS011;1382;52.142;11.618;2023-02-15T03:17:37;40.67;;;20.90;;
2748;SDS011;1382;52.142;11.618;2023-02-15T03:20:10;34.73;;;20.40;;
2748;SDS011;1382;52.142;11.618;2023-02-15T03:22:40;50.77;;;25.80;;
2748;SDS011;1382;52.142;11.618;2023-02-15T03:25:13;42.93;;;20.37;;
2748;SDS011;1382;52.142;11.618;2023-02-15T03:27:44;51.10;;;25.73;;
2748;SDS011;1382;52.142;11.618;2023-02-15T03:30:15;40.97;;;19.37;;
2748;SDS011;1382;52.142;11.618;2023-02-15T03:32:45;40.23;;;19.97;;
2748;SDS011;1382;52.142;11.618;2023-02-15T03:35:14;40.00;;;22.73;;
2748;SDS011;1382;52.142;11.618;2023-02-15T03:37:42;43.63;;;22.50;;
2748;SDS011;1382;52.142;11.618;2023-02-15T03:40:14;38.70;;;18.83;;
2748;SDS011;1382;52.142;11.618;2023-02-15T03:42:45;42.37;;;21.47;;
2748;SDS011;1382;52.142;11.618;2023-02-15T03:45:15;40.03;;;20.87;;
2748;SDS011;1382;52.142;11.618;2023-02-15T03:47:47;41.27;;;24.30;;
2748;SDS011;1382;52.142;11.618;2023-02-15T03:50:20;27.50;;;14.43;;
2748;SDS011;1382;52.142;11.618;2023-02-15T03:52:50;31.30;;;17.03;;
2748;SDS011;1382;52.142;11.618;2023-02-15T03:55:17;49.63;;;23.70;;
2748;SDS011;1382;52.142;11.618;2023-02-15T03:57:44;39.43;;;19.83;;
2748;SDS011;1382;52.142;11.618;2023-02-15T04:00:12;40.53;;;22.47;;
2748;SDS011;1382;52.142;11.618;2023-02-15T04:02:43;35.03;;;19.10;;
2748;SDS011;1382;52.142;11.618;2023-02-15T04:05:20;43.97;;;24.10;;
2748;SDS011;1382;52.142;11.618;2023-02-15T04:07:46;41.47;;;21.07;;
2748;SDS011;1382;52.142;11.618;2023-02-15T04:10:13;38.77;;;19.33;;
2748;SDS011;1382;52.142;11.618;2023-02-15T04:12:40;37.43;;;17.97;;
2748;SDS011;1382;52.142;11.618;2023-02-15T04:15:07;44.30;;;21.10;;
2748;SDS011;1382;52.142;11.618;2023-02-15T04:17:37;40.77;;;21.43;;
2748;SDS011;1382;52.142;11.618;2023-02-15T04:20:04;47.80;;;26.50;;
2748;SDS011;1382;52.142;11.618;2023-02-15T04:22:33;49.73;;;24.80;;
2748;SDS011;1382;52.142;11.618;2023-02-15T04:25:00;44.33;;;24.77;;
2748;SDS011;1382;52.142;11.618;2023-02-15T04:27:27;34.97;;;17.73;;
2748;SDS011;1382;52.142;11.618;2023-02-15T04:29:53;52.73;;;24.90;;
2748;SDS011;1382;52.142;11.618;2023-02-15T04:32:20;46.53;;;21.90;;
2748;SDS011;1382;52.142;11.618;2023-02-15T04:34:47;49.70;;;21.50;;
2748;SDS011;1382;52.142;11.618;2023-02-15T04:37:13;42.00;;;21.93;;
2748;SDS011;1382;52.142;11.618;2023-02-15T04:39:41;42.37;;;20.17;;
2748;SDS011;1382;52.142;11.618;2023-02-15T04:42:08;59.13;;;27.37;;
2748;SDS011;1382;52.142;11.618;2023-02-15T04:44:35;39.33;;;18.63;;
2748;SDS011;1382;52.142;11.618;2023-02-15T04:47:01;58.30;;;26.03;;
2748;SDS011;1382;52.142;11.618;2023-02-15T04:49:28;33.43;;;17.27;;
2748;SDS011;1382;52.142;11.618;2023-02-15T04:51:55;39.77;;;21.47;;
2748;SDS011;1382;52.142;11.618;2023-02-15T04:54:21;59.03;;;27.93;;
2748;SDS011;1382;52.142;11.618;2023-02-15T04:56:49;59.10;;;28.03;;
2748;SDS011;1382;52.142;11.618;2023-02-15T04:59:16;46.90;;;22.47;;
2748;SDS011;1382;52.142;11.618;2023-02-15T05:01:43;40.17;;;23.63;;
2748;SDS011;1382;52.142;11.618;2023-02-15T05:04:10;46.93;;;19.97;;
2748;SDS011;1382;52.142;11.618;2023-02-15T05:06:37;41.33;;;20.70;;
2748;SDS011;1382;52.142;11.618;2023-02-15T05:09:03;53.93;;;24.20;;
2748;SDS011;1382;52.142;11.618;2023-02-15T05:11:30;39.47;;;22.20;;
2748;SDS011;1382;52.142;11.618;2023-02-15T05:13:58;45.43;;;21.27;;
2748;SDS011;1382;52.142;11.618;2023-02-15T05:16:25;80.87;;;25.83;;
2748;SDS011;1382;52.142;11.618;2023-02-15T05:18:52;53.40;;;25.87;;
2748;SDS011;1382;52.142;11.618;2023-02-15T05:21:18;51.07;;;20.07;;
2748;SDS011;1382;52.142;11.618;2023-02-15T05:23:45;117.63;;;29.13;;
2748;SDS011;1382;52.142;11.618;2023-02-15T05:26:12;53.57;;;22.70;;
2748;SDS011;1382;52.142;11.618;2023-02-15T05:28:44;77.97;;;28.40;;
2748;SDS011;1382;52.142;11.618;2023-02-15T05:31:12;55.30;;;23.03;;
2748;SDS011;1382;52.142;11.618;2023-02-15T05:33:40;75.57;;;23.20;;
2748;SDS011;1382;52.142;11.618;2023-02-15T05:36:07;50.97;;;21.47;;
2748;SDS011;1382;52.142;11.618;2023-02-15T05:38:35;49.00;;;22.77;;
2748;SDS011;1382;52.142;11.618;2023-02-15T05:41:02;51.73;;;23.67;;
2748;SDS011;1382;52.142;11.618;2023-02-15T05:43:29;114.53;;;27.23;;
2748;SDS011;1382;52.142;11.618;2023-02-15T05:45:56;40.87;;;21.40;;
2748;SDS011;1382;52.142;11.618;2023-02-15T05:48:24;49.90;;;20.77;;
2748;SDS011;1382;52.142;11.618;2023-02-15T05:50:58;48.63;;;20.30;;
2748;SDS011;1382;52.142;11.618;2023-02-15T05:53:26;141.90;;;31.50;;
2748;SDS011;1382;52.142;11.618;2023-02-15T05:55:54;54.00;;;21.37;;
2748;SDS011;1382;52.142;11.618;2023-02-15T05:58:20;53.83;;;25.37;;
2748;SDS011;1382;52.142;11.618;2023-02-15T06:00:47;51.20;;;20.57;;
2748;SDS011;1382;52.142;11.618;2023-02-15T06:03:14;50.70;;;22.57;;
2748;SDS011;1382;52.142;11.618;2023-02-15T06:05:42;70.83;;;22.70;;
2748;SDS011;1382;52.142;11.618;2023-02-15T06:08:08;41.93;;;19.20;;
2748;SDS011;1382;52.142;11.618;2023-02-15T06:10:35;116.40;;;28.33;;
2748;SDS011;1382;52.142;11.618;2023-02-15T06:13:02;45.60;;;21.90;;
2748;SDS011;1382;52.142;11.618;2023-02-15T06:15:29;101.53;;;22.83;;
2748;SDS011;1382;52.142;11.618;2023-02-15T06:17:56;142.27;;;29.30;;
2748;SDS011;1382;52.142;11.618;2023-02-15T06:20:23;85.23;;;22.87;;
2748;SDS011;1382;52.142;11.618;2023-02-15T06:22:51;125.63;;;24.57;;
2748;SDS011;1382;52.142;11.618;2023-02-15T06:25:18;95.03;;;22.17;;
2748;SDS011;1382;52.142;11.618;2023-02-15T06:27:45;34.00;;;16.77;;
2748;SDS011;1382;52.142;11.618;2023-02-15T06:30:12;66.00;;;19.60;;
2748;SDS011;1382;52.142;11.618;2023-02-15T06:32:39;30.03;;;17.30;;
2748;SDS011;1382;52.142;11.618;2023-02-15T06:35:06;69.23;;;20.10;;
2748;SDS011;1382;52.142;11.618;2023-02-15T06:37:33;35.43;;;16.50;;
2748;SDS011;1382;52.142;11.618;2023-02-15T06:40:01;25.87;;;13.87;;
2748;SDS011;1382;52.142;11.618;2023-02-15T06:42:29;78.10;;;20.47;;
2748;SDS011;1382;52.142;11.618;2023-02-15T06:44:56;86.33;;;19.37;;
2748;SDS011;1382;52.142;11.618;2023-02-15T06:47:23;74.33;;;19.73;;
2748;SDS011;1382;52.142;11.618;2023-02-15T06:49:49;76.57;;;19.67;;
2748;SDS011;1382;52.142;11.618;2023-02-15T06:52:16;27.03;;;11.90;;
2748;SDS011;1382;52.142;11.618;2023-02-15T06:54:43;87.97;;;18.17;;
2748;SDS011;1382;52.142;11.618;2023-02-15T06:57:11;21.40;;;12.60;;
2748;SDS011;1382;52.142;11.618;2023-02-15T06:59:37;66.33;;;16.37;;
2748;SDS011;1382;52.142;11.618;2023-02-15T07:02:04;68.77;;;18.23;;
2748;SDS011;1382;52.142;11.618;2023-02-15T07:04:31;20.63;;;13.90;;
2748;SDS011;1382;52.142;11.618;2023-02-15T07:06:58;50.63;;;17.30;;
2748;SDS011;1382;52.142;11.618;2023-02-15T07:09:25;35.30;;;13.87;;
2748;SDS011;1382;52.142;11.618;2023-02-15T07:11:51;30.50;;;14.50;;
2748;SDS011;1382;52.142;11.618;2023-02-15T07:14:19;43.03;;;15.30;;
2748;SDS011;1382;52.142;11.618;2023-02-15T07:16:46;49.17;;;15.33;;
2748;SDS011;1382;52.142;11.618;2023-02-15T07:19:13;83.43;;;20.87;;
2748;SDS011;1382;52.142;11.618;2023-02-15T07:21:40;58.27;;;15.67;;
2748;SDS011;1382;52.142;11.618;2023-02-15T07:24:06;45.50;;;15.20;;
2748;SDS011;1382;52.142;11.618;2023-02-15T07:26:33;108.90;;;19.27;;
2748;SDS011;1382;52.142;11.618;2023-02-15T07:29:00;52.27;;;17.23;;
2748;SDS011;1382;52.142;11.618;2023-02-15T07:31:28;69.20;;;18.67;;
2748;SDS011;1382;52.142;11.618;2023-02-15T07:33:55;138.30;;;22.37;;
2748;SDS011;1382;52.142;11.618;2023-02-15T07:36:22;71.30;;;19.57;;
2748;SDS011;1382;52.142;11.618;2023-02-15T07:38:49;93.30;;;20.03;;
2748;SDS011;1382;52.142;11.618;2023-02-15T07:41:16;60.77;;;16.50;;
2748;SDS011;1382;52.142;11.618;2023-02-15T07:43:43;62.90;;;16.20;;
2748;SDS011;1382;52.142;11.618;2023-02-15T07:46:12;27.80;;;13.90;;
2748;SDS011;1382;52.142;11.618;2023-02-15T07:48:41;31.27;;;13.20;;
2748;SDS011;1382;52.142;11.618;2023-02-15T07:51:09;89.50;;;20.10;;
2748;SDS011;1382;52.142;11.618;2023-02-15T07:53:36;34.63;;;15.37;;
2748;SDS011;1382;52.142;11.618;2023-02-15T07:56:04;28.93;;;15.30;;
2748;SDS011;1382;52.142;11.618;2023-02-15T07:58:32;34.90;;;12.33;;
2748;SDS011;1382;52.142;11.618;2023-02-15T08:00:59;63.27;;;17.33;;
2748;SDS011;1382;52.142;11.618;2023-02-15T08:03:26;104.90;;;22.20;;
2748;SDS011;1382;52.142;11.618;2023-02-15T08:05:56;58.13;;;16.40;;
2748;SDS011;1382;52.142;11.618;2023-02-15T08:08:25;43.67;;;15.70;;
2748;SDS011;1382;52.142;11.618;2023-02-15T08:10:52;33.70;;;16.53;;
2748;SDS011;1382;52.142;11.618;2023-02-15T08:13:19;32.70;;;13.27;;
2748;SDS011;1382;52.142;11.618;2023-02-15T08:15:47;23.67;;;13.83;;
2748;SDS011;1382;52.142;11.618;2023-02-15T08:18:14;55.57;;;15.67;;
2748;SDS011;1382;52.142;11.618;2023-02-15T08:20:41;21.20;;;12.07;;
2748;SDS011;1382;52.142;11.618;2023-02-15T08:23:10;19.83;;;12.90;;
2748;SDS011;1382;52.142;11.618;2023-02-15T08:25:37;19.27;;;11.40;;
2748;SDS011;1382;52.142;11.618;2023-02-15T08:28:03;59.67;;;17.17;;
2748;SDS011;1382;52.142;11.618;2023-02-15T08:30:30;21.53;;;11.97;;
2748;SDS011;1382;52.142;11.618;2023-02-15T08:33:00;24.10;;;14.90;;
2748;SDS011;1382;52.142;11.618;2023-02-15T08:35:26;14.03;;;9.37;;
2748;SDS011;1382;52.142;11.618;2023-02-15T08:37:53;26.40;;;12.70;;
2748;SDS011;1382;52.142;11.618;2023-02-15T08:40:21;32.67;;;12.60;;
2748;SDS011;1382;52.142;11.618;2023-02-15T08:42:48;17.10;;;10.47;;
2748;SDS011;1382;52.142;11.618;2023-02-15T08:45:15;24.67;;;14.00;;
2748;SDS011;1382;52.142;11.618;2023-02-15T08:47:42;19.63;;;12.10;;
2748;SDS011;1382;52.142;11.618;2023-02-15T08:50:09;30.63;;;14.93;;
2748;SDS011;1382;52.142;11.618;2023-02-15T08:52:35;48.53;;;17.37;;
2748;SDS011;1382;52.142;11.618;2023-02-15T08:55:02;23.23;;;11.57;;
2748;SDS011;1382;52.142;11.618;2023-02-15T08:57:30;35.13;;;14.43;;
2748;SDS011;1382;52.142;11.618;2023-02-15T08:59:57;25.50;;;14.10;;
2748;SDS011;1382;52.142;11.618;2023-02-15T09:02:24;46.13;;;15.80;;
2748;SDS011;1382;52.142;11.618;2023-02-15T09:04:51;28.20;;;14.20;;
2748;SDS011;1382;52.142;11.618;2023-02-15T09:07:18;18.87;;;10.27;;
2748;SDS011;1382;52.142;11.618;2023-02-15T09:09:45;21.57;;;10.87;;
2748;SDS011;1382;52.142;11.618;2023-02-15T09:12:12;22.87;;;12.60;;
2748;SDS011;1382;52.142;11.618;2023-02-15T09:14:40;27.83;;;15.83;;
2748;SDS011;1382;52.142;11.618;2023-02-15T09:17:07;20.53;;;11.73;;
2748;SDS011;1382;52.142;11.618;2023-02-15T09:19:34;18.00;;;12.67;;
2748;SDS011;1382;52.142;11.618;2023-02-15T09:22:00;24.00;;;12.67;;
2748;SDS011;1382;52.142;11.618;2023-02-15T09:24:27;26.50;;;13.33;;
2748;SDS011;1382;52.142;11.618;2023-02-15T09:26:58;20.80;;;12.40;;
2748;SDS011;1382;52.142;11.618;2023-02-15T09:29:25;18.67;;;10.30;;
2748;SDS011;1382;52.142;11.618;2023-02-15T09:31:53;20.43;;;11.80;;
2748;SDS011;1382;52.142;11.618;2023-02-15T09:34:20;24.50;;;12.87;;
2748;SDS011;1382;52.142;11.618;2023-02-15T09:36:48;20.10;;;14.10;;
2748;SDS011;1382;52.142;11.618;2023-02-15T09:39:16;22.27;;;12.40;;
2748;SDS011;1382;52.142;11.618;2023-02-15T09:42:06;22.87;;;13.73;;
2748;SDS011;1382;52.142;11.618;2023-02-15T09:44:53;15.63;;;10.90;;
2748;SDS011;1382;52.142;11.618;2023-02-15T09:47:41;19.90;;;12.40;;
2748;SDS011;1382;52.142;11.618;2023-02-15T09:50:23;24.97;;;13.43;;
2748;SDS011;1382;52.142;11.618;2023-02-15T09:53:00;33.47;;;14.27;;
2748;SDS011;1382;52.142;11.618;2023-02-15T09:55:43;18.43;;;12.50;;
2748;SDS011;1382;52.142;11.618;2023-02-15T09:58:24;26.90;;;14.30;;
2748;SDS011;1382;52.142;11.618;2023-02-15T10:01:01;21.17;;;12.10;;
2748;SDS011;1382;52.142;11.618;2023-02-15T10:03:41;20.10;;;13.40;;
2748;SDS011;1382;52.142;11.618;2023-02-15T10:06:26;32.40;;;13.43;;
2748;SDS011;1382;52.142;11.618;2023-02-15T10:09:03;19.87;;;12.73;;
2748;SDS011;1382;52.142;11.618;2023-02-15T10:11:48;16.90;;;10.10;;
2748;SDS011;1382;52.142;11.618;2023-02-15T10:14:49;17.40;;;10.30;;
2748;SDS011;1382;52.142;11.618;2023-02-15T10:17:32;17.00;;;10.43;;
2748;SDS011;1382;52.142;11.618;2023-02-15T10:20:11;19.33;;;11.43;;
2748;SDS011;1382;52.142;11.618;2023-02-15T10:22:50;13.70;;;9.83;;
2748;SDS011;1382;52.142;11.618;2023-02-15T10:25:35;15.60;;;11.40;;
2748;SDS011;1382;52.142;11.618;2023-02-15T10:28:15;12.90;;;9.50;;
2748;SDS011;1382;52.142;11.618;2023-02-15T10:30:45;15.83;;;11.23;;
2748;SDS011;1382;52.142;11.618;2023-02-15T10:33:16;17.60;;;11.43;;
2748;SDS011;1382;52.142;11.618;2023-02-15T10:35:56;16.73;;;10.37;;
2748;SDS011;1382;52.142;11.618;2023-02-15T10:38:30;16.87;;;9.97;;
2748;SDS011;1382;52.142;11.618;2023-02-15T10:41:06;16.83;;;10.40;;
2748;SDS011;1382;52.142;11.618;2023-02-15T10:43:49;13.07;;;9.60;;
2748;SDS011;1382;52.142;11.618;2023-02-15T10:46:35;18.87;;;10.20;;
2748;SDS011;1382;52.142;11.618;2023-02-15T10:49:34;16.97;;;11.07;;
2748;SDS011;1382;52.142;11.618;2023-02-15T10:52:17;12.57;;;10.30;;
2748;SDS011;1382;52.142;11.618;2023-02-15T10:54:53;16.07;;;10.13;;
2748;SDS011;1382;52.142;11.618;2023-02-15T10:57:30;20.30;;;11.87;;
2748;SDS011;1382;52.142;11.618;2023-02-15T11:00:05;14.53;;;10.27;;
2748;SDS011;1382;52.142;11.618;2023-02-15T11:02:44;18.00;;;10.30;;
2748;SDS011;1382;52.142;11.618;2023-02-15T11:05:24;15.57;;;10.43;;
2748;SDS011;1382;52.142;11.618;2023-02-15T11:08:02;16.70;;;11.17;;
2748;SDS011;1382;52.142;11.618;2023-02-15T11:10:33;15.00;;;11.40;;
2748;SDS011;1382;52.142;11.618;2023-02-15T11:13:05;20.63;;;13.00;;
2748;SDS011;1382;52.142;11.618;2023-02-15T11:15:36;18.70;;;10.70;;
2748;SDS011;1382;52.142;11.618;2023-02-15T11:18:08;13.23;;;10.63;;
2748;SDS011;1382;52.142;11.618;2023-02-15T11:20:41;16.33;;;11.17;;
2748;SDS011;1382;52.142;11.618;2023-02-15T11:23:13;13.13;;;9.67;;
2748;SDS011;1382;52.142;11.618;2023-02-15T11:25:43;16.17;;;10.53;;
2748;SDS011;1382;52.142;11.618;2023-02-15T11:28:18;11.57;;;8.63;;
2748;SDS011;1382;52.142;11.618;2023-02-15T11:30:49;17.40;;;9.90;;
2748;SDS011;1382;52.142;11.618;2023-02-15T11:33:20;16.20;;;10.90;;
2748;SDS011;1382;52.142;11.618;2023-02-15T11:35:50;15.97;;;11.30;;
2748;SDS011;1382;52.142;11.618;2023-02-15T11:38:21;12.90;;;8.90;;
2748;SDS011;1382;52.142;11.618;2023-02-15T11:40:53;18.60;;;11.50;;
2748;SDS011;1382;52.142;11.618;2023-02-15T11:43:23;18.37;;;12.10;;
2748;SDS011;1382;52.142;11.618;2023-02-15T11:45:55;22.13;;;12.63;;
2748;SDS011;1382;52.142;11.618;2023-02-15T11:48:22;15.00;;;10.47;;
2748;SDS011;1382;52.142;11.618;2023-02-15T11:50:49;16.90;;;12.77;;
2748;SDS011;1382;52.142;11.618;2023-02-15T11:53:16;21.80;;;11.80;;
2748;SDS011;1382;52.142;11.618;2023-02-15T11:55:47;16.93;;;9.30;;
2748;SDS011;1382;52.142;11.618;2023-02-15T11:58:16;16.23;;;11.30;;
2748;SDS011;1382;52.142;11.618;2023-02-15T12:00:52;15.80;;;11.43;;
2748;SDS011;1382;52.142;11.618;2023-02-15T12:03:24;18.97;;;13.60;;
2748;SDS011;1382;52.142;11.618;2023-02-15T12:06:02;21.20;;;13.50;;
2748;SDS011;1382;52.142;11.618;2023-02-15T12:08:33;20.07;;;11.80;;
2748;SDS011;1382;52.142;11.618;2023-02-15T12:11:05;28.37;;;14.67;;
2748;SDS011;1382;52.142;11.618;2023-02-15T12:13:35;16.20;;;10.50;;
2748;SDS011;1382;52.142;11.618;2023-02-15T12:16:04;17.80;;;12.80;;
2748;SDS011;1382;52.142;11.618;2023-02-15T12:18:38;19.43;;;13.90;;
2748;SDS011;1382;52.142;11.618;2023-02-15T12:21:07;22.00;;;14.80;;
2748;SDS011;1382;52.142;11.618;2023-02-15T12:23:39;23.13;;;15.80;;
2748;SDS011;1382;52.142;11.618;2023-02-15T12:26:12;21.00;;;15.03;;
2748;SDS011;1382;52.142;11.618;2023-02-15T12:28:40;20.13;;;14.20;;
2748;SDS011;1382;52.142;11.618;2023-02-15T12:31:10;19.90;;;14.03;;
2748;SDS011;1382;52.142;11.618;2023-02-15T12:33:46;19.73;;;12.70;;
2748;SDS011;1382;52.142;11.618;2023-02-15T12:36:15;20.03;;;13.90;;
2748;SDS011;1382;52.142;11.618;2023-02-15T12:41:32;16.50;;;12.53;;
2748;SDS011;1382;52.142;11.618;2023-02-15T12:44:03;20.33;;;11.77;;
2748;SDS011;1382;52.142;11.618;2023-02-15T12:46:31;20.13;;;11.30;;
2748;SDS011;1382;52.142;11.618;2023-02-15T12:49:07;19.00;;;12.53;;
2748;SDS011;1382;52.142;11.618;2023-02-15T12:51:46;15.93;;;10.80;;
2748;SDS011;1382;52.142;11.618;2023-02-15T12:54:25;18.37;;;12.30;;
2748;SDS011;1382;52.142;11.618;2023-02-15T12:57:04;15.13;;;10.40;;
2748;SDS011;1382;52.142;11.618;2023-02-15T12:59:48;16.00;;;13.10;;
2748;SDS011;1382;52.142;11.618;2023-02-15T13:02:18;14.87;;;12.83;;
2748;SDS011;1382;52.142;11.618;2023-02-15T13:04:48;16.13;;;11.83;;
2748;SDS011;1382;52.142;11.618;2023-02-15T13:07:16;14.07;;;11.20;;
2748;SDS011;1382;52.142;11.618;2023-02-15T13:09:43;16.83;;;11.23;;
2748;SDS011;1382;52.142;11.618;2023-02-15T13:12:15;15.20;;;10.90;;
2748;SDS011;1382;52.142;11.618;2023-02-15T13:14:44;15.97;;;11.10;;
2748;SDS011;1382;52.142;11.618;2023-02-15T13:17:13;18.03;;;11.07;;
2748;SDS011;1382;52.142;11.618;2023-02-15T13:19:42;14.70;;;10.77;;
2748;SDS011;1382;52.142;11.618;2023-02-15T13:22:13;14.37;;;10.43;;
2748;SDS011;1382;52.142;11.618;2023-02-15T13:24:42;9.97;;;8.83;;
2748;SDS011;1382;52.142;11.618;2023-02-15T13:27:15;15.17;;;11.07;;
2748;SDS011;1382;52.142;11.618;2023-02-15T13:29:45;14.33;;;9.73;;
2748;SDS011;1382;52.142;11.618;2023-02-15T13:32:20;23.73;;;10.67;;
2748;SDS011;1382;52.142;11.618;2023-02-15T13:34:53;16.10;;;10.93;;
2748;SDS011;1382;52.142;11.618;2023-02-15T13:37:25;13.50;;;9.50;;
2748;SDS011;1382;52.142;11.618;2023-02-15T13:40:14;12.07;;;9.57;;
2748;SDS011;1382;52.142;11.618;2023-02-15T13:42:48;13.83;;;10.17;;
2748;SDS011;1382;52.142;11.618;2023-02-15T13:45:27;10.83;;;9.20;;
2748;SDS011;1382;52.142;11.618;2023-02-15T13:48:05;10.73;;;9.53;;
2748;SDS011;1382;52.142;11.618;2023-02-15T13:50:48;13.90;;;10.17;;
2748;SDS011;1382;52.142;11.618;2023-02-15T13:53:26;14.00;;;9.70;;
2748;SDS011;1382;52.142;11.618;2023-02-15T13:56:04;14.10;;;9.97;;
2748;SDS011;1382;52.142;11.618;2023-02-15T13:58:54;11.73;;;9.13;;
2748;SDS011;1382;52.142;11.618;2023-02-15T14:01:34;10.40;;;8.30;;
2748;SDS011;1382;52.142;11.618;2023-02-15T14:04:25;10.93;;;9.10;;
2748;SDS011;1382;52.142;11.618;2023-02-15T14:07:28;10.53;;;8.93;;
2748;SDS011;1382;52.142;11.618;2023-02-15T14:10:10;14.70;;;9.20;;
2748;SDS011;1382;52.142;11.618;2023-02-15T14:13:00;13.43;;;8.97;;
2748;SDS011;1382;52.142;11.618;2023-02-15T14:15:53;13.83;;;8.77;;
2748;SDS011;1382;52.142;11.618;2023-02-15T14:18:27;10.93;;;9.33;;
2748;SDS011;1382;52.142;11.618;2023-02-15T14:21:04;9.97;;;8.10;;
2748;SDS011;1382;52.142;11.618;2023-02-15T14:23:41;15.13;;;9.37;;
2748;SDS011;1382;52.142;11.618;2023-02-15T14:26:19;12.93;;;9.57;;
2748;SDS011;1382;52.142;11.618;2023-02-15T14:28:55;9.63;;;8.07;;
2748;SDS011;1382;52.142;11.618;2023-02-15T14:31:30;12.90;;;8.20;;
2748;SDS011;1382;52.142;11.618;2023-02-15T14:34:01;10.37;;;8.50;;
2748;SDS011;1382;52.142;11.618;2023-02-15T14:36:27;9.93;;;8.07;;
2748;SDS011;1382;52.142;11.618;2023-02-15T14:38:59;11.67;;;9.10;;
2748;SDS011;1382;52.142;11.618;2023-02-15T14:41:36;13.10;;;10.10;;
2748;SDS011;1382;52.142;11.618;2023-02-15T14:44:08;10.87;;;8.80;;
2748;SDS011;1382;52.142;11.618;2023-02-15T14:46:42;12.07;;;9.47;;
2748;SDS011;1382;52.142;11.618;2023-02-15T14:49:15;11.63;;;9.70;;
2748;SDS011;1382;52.142;11.618;2023-02-15T14:51:55;10.33;;;9.23;;
2748;SDS011;1382;52.142;11.618;2023-02-15T14:57:25;13.00;;;9.13;;
2748;SDS011;1382;52.142;11.618;2023-02-15T14:59:54;11.70;;;8.47;;
2748;SDS011;1382;52.142;11.618;2023-02-15T15:02:24;17.63;;;9.37;;
2748;SDS011;1382;52.142;11.618;2023-02-15T15:04:59;20.27;;;10.70;;
2748;SDS011;1382;52.142;11.618;2023-02-15T15:07:34;12.80;;;9.33;;
2748;SDS011;1382;52.142;11.618;2023-02-15T15:10:05;12.07;;;9.37;;